Thursday, October 23, 2014, 2:32 PM EDT

KMDT, Harrisburg International Airport

Location: Middletown, PA, United States Lat: 40.2
Local Time: 2:32 PM EDT (18:32 GMT) Lon: -76.767
Time Zone: US/Eastern Elev: 308 ft

Show me the last for .
Show Decoded

2014-10-23 13:56 METAR KMDT 231756Z 34012G23KT 10SM BKN040 15/07 A2983 RMK AO2 PK WND 32027/1709
                 SLP103 T01500067 10156 20117 57016 =
2014-10-23 12:56 METAR KMDT 231656Z 34019G28KT 10SM OVC032 14/07 A2985 =
2014-10-23 11:56 METAR KMDT 231556Z 34013G24KT 10SM OVC031 13/06 A2987 =
2014-10-23 10:56 METAR KMDT 231456Z 34017G23KT 10SM OVC031 13/06 A2988 RMK AO2 SLP119 T01280061
                 55001 =
2014-10-23 09:56 METAR KMDT 231356Z 33010G21KT 10SM OVC031 12/06 A2988 RMK AO2 PK WND 33026/1303
                 SLP119 T01220061 =
2014-10-23 08:56 METAR KMDT 231256Z 34014G22KT 10SM OVC031 12/06 A2987 =
2014-10-23 07:56 METAR KMDT 231156Z 35011G17KT 10SM OVC032 12/05 A2988 =
2014-10-23 06:56 METAR KMDT 231056Z 32012G18KT 10SM OVC032 12/05 A2987 RMK AO2 SLP116 T01170050 $
                 =
2014-10-23 05:56 METAR KMDT 230956Z 33013G20KT 10SM OVC031 12/05 A2988 RMK AO2 SLP119 T01170050 $
                 =
2014-10-23 04:56 METAR KMDT 230856Z 34011G25KT 10SM BKN031 OVC080 12/06 A2987 =
2014-10-23 04:45 METAR KMDT 230845Z 34018G24KT 10SM SCT031 BKN080 11/06 A2986 RMK AO2 PK WND
                 32026/0818 T01110056 =
2014-10-23 03:56 METAR KMDT 230756Z 35013G20KT 10SM BKN029 OVC060 12/06 A2987 =
2014-10-23 02:56 METAR KMDT 230656Z 33014G23KT 10SM OVC028 12/06 A2987 RMK AO2 PK WND 35028/0608
                 SLP116 T01170061 =
2014-10-23 01:56 METAR KMDT 230556Z 33016G25KT 10SM OVC026 11/06 A2987 =
2014-10-23 00:56 METAR KMDT 230456Z 34013G21KT 10SM OVC026 11/06 A2991 RMK AO2 PK WND 33029/0419
                 SLP128 T01110056 401330111 =
2014-10-22 23:56 METAR KMDT 230356Z 33017G25KT 10SM BKN025 11/06 A2992 =
2014-10-22 22:56 METAR KMDT 230256Z 33011G22KT 10SM BKN026 OVC060 11/06 A2994 =
2014-10-22 21:56 METAR KMDT 230156Z 34013G23KT 10SM OVC028 11/06 A2995 RMK AO2 RAE16 SLP144 P0000
                 T01110056 =
2014-10-22 20:56 METAR KMDT 230056Z 33011KT 10SM -RA OVC028 11/06 A2996 RMK AO2 RAB40 SLP147 PCPN
                 VRY LGT P0000 T01110061 =
2014-10-22 19:56 METAR KMDT 222356Z 33015KT 10SM OVC028 12/06 A2996 =
2014-10-22 18:56 METAR KMDT 222256Z 34014G26KT 10SM OVC026 12/06 A2997 =
2014-10-22 17:56 METAR KMDT 222156Z 34015G23KT 10SM BKN028 OVC040 12/07 A2995 =
2014-10-22 16:56 METAR KMDT 222056Z 34014G22KT 10SM BKN025 BKN070 OVC100 12/07 A2995 =
2014-10-22 15:56 METAR KMDT 221956Z 35011G18KT 10SM BKN025 BKN040 OVC100 13/08 A2995 =
2014-10-22 14:56 METAR KMDT 221856Z 34012G22KT 10SM BKN025 OVC035 13/08 A2995 =

Support USWX by starting your Amazon purchase here.